Jacksontown, Ohio
Current Conditions -  °F | °C
As of 6:54 PM on Saturday 22 Nov 2014 (Local Time) from KVTA Reporting Station
Overcast Overcast  
Wind Chill: 44°   Ceiling: 9500
Heat Index: 46°   Visibility: 10mi
Dew Point: 31°   Wind: 5mph
Humidity: 56%   Direction: 190°S
Pressure: 30.1"   Gusts: NA
Location:  39.96°N, 82.41°W
Report Text: KVTA 222354Z AUTO 19004KT 10SM BKN095 OVC120 08/M01 A3010 RMK AO2 SLP197 T00781006 10083 20039 58008
Loading
Personal Weather Stations






























Interactive Weather Map New forecast layout! Learn more

10-Day Weather Forecast

Advertisements
Track Severe Weather on mobile